sensor_id;sensor_type;location;lat;lon;timestamp;temperature;humidity
44731;DHT22;30458;47.448;19.032;2023-02-15T00:01:36;4.30;99.90
44731;DHT22;30458;47.448;19.032;2023-02-15T00:11:38;4.00;99.90
44731;DHT22;30458;47.448;19.032;2023-02-15T00:21:55;3.90;99.90
44731;DHT22;30458;47.448;19.032;2023-02-15T00:31:56;3.40;99.90
44731;DHT22;30458;47.448;19.032;2023-02-15T00:41:58;3.80;99.90
44731;DHT22;30458;47.448;19.032;2023-02-15T00:51:59;4.00;99.90
44731;DHT22;30458;47.448;19.032;2023-02-15T01:01:59;4.20;99.90
44731;DHT22;30458;47.448;19.032;2023-02-15T01:12:00;4.30;99.90
44731;DHT22;30458;47.448;19.032;2023-02-15T01:22:01;4.20;99.90
44731;DHT22;30458;47.448;19.032;2023-02-15T01:32:04;3.90;99.90
44731;DHT22;30458;47.448;19.032;2023-02-15T01:42:05;3.70;99.90
44731;DHT22;30458;47.448;19.032;2023-02-15T01:52:09;3.70;99.90
44731;DHT22;30458;47.448;19.032;2023-02-15T02:02:14;3.80;99.90
44731;DHT22;30458;47.448;19.032;2023-02-15T02:12:21;3.90;99.90
44731;DHT22;30458;47.448;19.032;2023-02-15T02:53:36;3.70;99.90
44731;DHT22;30458;47.448;19.032;2023-02-15T03:03:41;3.60;99.90
44731;DHT22;30458;47.448;19.032;2023-02-15T03:13:47;3.50;99.90
44731;DHT22;30458;47.448;19.032;2023-02-15T03:23:56;3.60;99.90
44731;DHT22;30458;47.448;19.032;2023-02-15T03:34:04;3.60;99.90
44731;DHT22;30458;47.448;19.032;2023-02-15T03:44:14;3.60;99.90
44731;DHT22;30458;47.448;19.032;2023-02-15T03:54:31;3.40;99.90
44731;DHT22;30458;47.448;19.032;2023-02-15T04:04:47;3.30;99.90
44731;DHT22;30458;47.448;19.032;2023-02-15T04:14:50;3.00;99.90
44731;DHT22;30458;47.448;19.032;2023-02-15T04:25:10;3.10;99.90
44731;DHT22;30458;47.448;19.032;2023-02-15T04:35:14;3.00;99.90
44731;DHT22;30458;47.448;19.032;2023-02-15T04:45:16;3.00;99.90
44731;DHT22;30458;47.448;19.032;2023-02-15T04:55:19;2.90;99.90
44731;DHT22;30458;47.448;19.032;2023-02-15T05:05:20;2.90;99.90
44731;DHT22;30458;47.448;19.032;2023-02-15T05:15:23;2.90;99.90
44731;DHT22;30458;47.448;19.032;2023-02-15T05:25:24;2.70;99.90
44731;DHT22;30458;47.448;19.032;2023-02-15T05:35:48;2.60;99.90
44731;DHT22;30458;47.448;19.032;2023-02-15T05:45:53;2.70;99.90
44731;DHT22;30458;47.448;19.032;2023-02-15T05:55:57;2.60;99.90
44731;DHT22;30458;47.448;19.032;2023-02-15T06:06:05;2.60;99.90
44731;DHT22;30458;47.448;19.032;2023-02-15T06:16:07;2.70;99.90
44731;DHT22;30458;47.448;19.032;2023-02-15T06:26:07;3.20;99.90
44731;DHT22;30458;47.448;19.032;2023-02-15T06:36:11;4.20;99.90
44731;DHT22;30458;47.448;19.032;2023-02-15T06:46:14;5.20;99.90
44731;DHT22;30458;47.448;19.032;2023-02-15T06:56:15;6.30;99.30
44731;DHT22;30458;47.448;19.032;2023-02-15T07:06:16;7.70;96.70
44731;DHT22;30458;47.448;19.032;2023-02-15T07:16:17;9.10;94.60
44731;DHT22;30458;47.448;19.032;2023-02-15T07:26:17;10.60;91.80
44731;DHT22;30458;47.448;19.032;2023-02-15T07:36:18;12.10;88.50
44731;DHT22;30458;47.448;19.032;2023-02-15T07:46:22;13.40;83.30
44731;DHT22;30458;47.448;19.032;2023-02-15T07:56:27;14.70;78.80
44731;DHT22;30458;47.448;19.032;2023-02-15T08:06:30;16.40;74.60
44731;DHT22;30458;47.448;19.032;2023-02-15T08:16:44;17.80;70.50
44731;DHT22;30458;47.448;19.032;2023-02-15T08:26:48;19.20;66.10
44731;DHT22;30458;47.448;19.032;2023-02-15T08:36:53;20.90;63.20
44731;DHT22;30458;47.448;19.032;2023-02-15T08:46:56;20.60;62.00
44731;DHT22;30458;47.448;19.032;2023-02-15T08:57:03;21.80;60.00
44731;DHT22;30458;47.448;19.032;2023-02-15T09:07:07;21.10;59.70
44731;DHT22;30458;47.448;19.032;2023-02-15T09:17:08;20.20;60.90
44731;DHT22;30458;47.448;19.032;2023-02-15T09:27:11;20.10;60.70
44731;DHT22;30458;47.448;19.032;2023-02-15T09:37:15;19.90;60.10
44731;DHT22;30458;47.448;19.032;2023-02-15T10:18:22;10.20;83.00
44731;DHT22;30458;47.448;19.032;2023-02-15T10:28:38;9.70;86.60
44731;DHT22;30458;47.448;19.032;2023-02-15T10:49:20;8.80;92.70
44731;DHT22;30458;47.448;19.032;2023-02-15T11:09:54;9.00;94.30
44731;DHT22;30458;47.448;19.032;2023-02-15T11:20:25;9.30;94.10
44731;DHT22;30458;47.448;19.032;2023-02-15T11:30:42;9.40;94.20
44731;DHT22;30458;47.448;19.032;2023-02-15T11:40:49;9.10;95.00
44731;DHT22;30458;47.448;19.032;2023-02-15T11:50:57;8.90;95.00
44731;DHT22;30458;47.448;19.032;2023-02-15T12:11:38;9.60;94.30
44731;DHT22;30458;47.448;19.032;2023-02-15T12:21:40;9.50;94.30
44731;DHT22;30458;47.448;19.032;2023-02-15T12:31:46;9.50;94.90
44731;DHT22;30458;47.448;19.032;2023-02-15T12:51:57;9.50;94.90
44731;DHT22;30458;47.448;19.032;2023-02-15T13:02:09;9.50;94.50
44731;DHT22;30458;47.448;19.032;2023-02-15T13:12:25;9.80;93.80
44731;DHT22;30458;47.448;19.032;2023-02-15T13:22:45;10.00;93.20
44731;DHT22;30458;47.448;19.032;2023-02-15T13:32:56;10.10;93.10
44731;DHT22;30458;47.448;19.032;2023-02-15T13:53:25;10.20;93.40
44731;DHT22;30458;47.448;19.032;2023-02-15T14:45:05;10.40;94.10
44731;DHT22;30458;47.448;19.032;2023-02-15T14:55:06;10.30;94.20
44731;DHT22;30458;47.448;19.032;2023-02-15T15:56:28;10.00;95.10
44731;DHT22;30458;47.448;19.032;2023-02-15T16:06:36;9.80;95.50
44731;DHT22;30458;47.448;19.032;2023-02-15T16:16:39;9.60;96.20
44731;DHT22;30458;47.448;19.032;2023-02-15T16:36:44;9.20;96.50
44731;DHT22;30458;47.448;19.032;2023-02-15T16:46:51;9.00;96.90
44731;DHT22;30458;47.448;19.032;2023-02-15T16:56:54;8.90;97.30
44731;DHT22;30458;47.448;19.032;2023-02-15T17:17:18;8.70;97.90
44731;DHT22;30458;47.448;19.032;2023-02-15T17:27:24;8.50;98.30
44731;DHT22;30458;47.448;19.032;2023-02-15T17:37:47;8.40;98.50
44731;DHT22;30458;47.448;19.032;2023-02-15T17:47:49;8.30;98.40
44731;DHT22;30458;47.448;19.032;2023-02-15T17:57:49;8.20;98.20
44731;DHT22;30458;47.448;19.032;2023-02-15T18:07:50;8.10;98.40
44731;DHT22;30458;47.448;19.032;2023-02-15T18:18:11;7.90;98.70
44731;DHT22;30458;47.448;19.032;2023-02-15T18:28:12;7.80;98.90
44731;DHT22;30458;47.448;19.032;2023-02-15T18:38:13;7.60;99.00
44731;DHT22;30458;47.448;19.032;2023-02-15T18:48:14;7.50;99.20
44731;DHT22;30458;47.448;19.032;2023-02-15T18:58:19;7.40;99.20
44731;DHT22;30458;47.448;19.032;2023-02-15T19:08:22;7.10;99.10
44731;DHT22;30458;47.448;19.032;2023-02-15T19:18:24;6.90;99.20
44731;DHT22;30458;47.448;19.032;2023-02-15T19:28:31;6.70;99.30
44731;DHT22;30458;47.448;19.032;2023-02-15T19:38:35;6.50;99.60
44731;DHT22;30458;47.448;19.032;2023-02-15T19:48:39;6.40;99.90
44731;DHT22;30458;47.448;19.032;2023-02-15T19:58:39;6.20;99.90
44731;DHT22;30458;47.448;19.032;2023-02-15T20:08:41;6.10;99.90
44731;DHT22;30458;47.448;19.032;2023-02-15T20:18:42;5.90;99.90
44731;DHT22;30458;47.448;19.032;2023-02-15T20:28:46;5.80;99.90
44731;DHT22;30458;47.448;19.032;2023-02-15T20:39:04;5.70;99.90
44731;DHT22;30458;47.448;19.032;2023-02-15T20:49:12;5.50;99.90
44731;DHT22;30458;47.448;19.032;2023-02-15T20:59:30;5.40;99.90
44731;DHT22;30458;47.448;19.032;2023-02-15T21:09:33;5.40;99.90
44731;DHT22;30458;47.448;19.032;2023-02-15T21:19:37;5.10;99.90
44731;DHT22;30458;47.448;19.032;2023-02-15T21:29:40;4.80;99.90
44731;DHT22;30458;47.448;19.032;2023-02-15T21:39:41;4.70;99.90
44731;DHT22;30458;47.448;19.032;2023-02-15T21:49:41;4.80;99.90
44731;DHT22;30458;47.448;19.032;2023-02-15T21:59:43;4.60;99.90
44731;DHT22;30458;47.448;19.032;2023-02-15T22:09:43;4.20;99.90
44731;DHT22;30458;47.448;19.032;2023-02-15T22:19:51;4.20;99.90
44731;DHT22;30458;47.448;19.032;2023-02-15T22:29:55;4.10;99.90
44731;DHT22;30458;47.448;19.032;2023-02-15T22:39:56;4.10;99.90
44731;DHT22;30458;47.448;19.032;2023-02-15T22:50:00;4.20;99.90
44731;DHT22;30458;47.448;19.032;2023-02-15T23:00:04;4.00;99.90
44731;DHT22;30458;47.448;19.032;2023-02-15T23:10:06;4.00;99.90
44731;DHT22;30458;47.448;19.032;2023-02-15T23:20:20;4.00;99.90
44731;DHT22;30458;47.448;19.032;2023-02-15T23:30:21;4.10;99.90
44731;DHT22;30458;47.448;19.032;2023-02-15T23:40:22;4.00;99.90
44731;DHT22;30458;47.448;19.032;2023-02-15T23:50:44;3.80;99.90
